Middleton Island, Alaska
Current Conditions -  °F | °C
As of 10:36 PM on Wednesday 22 Oct 2014 (Local Time) from PAMD Reporting Station
Broken Clouds Broken Clouds  
Wind Chill: 40°   Ceiling: 1700
Heat Index: 46°   Visibility: 10mi
Dew Point: 41°   Wind: 15mph
Humidity: 81%   Direction: 40°NE
Pressure: 29.37"   Gusts: 18mph
Location:  59.43°N, 146.33°W
Report Text: PAMD 230636Z 04013G16KT 10SM BKN017 BKN050 BKN110 08/05 A2937 RMK AO1
Loading
Personal Weather Stations






























Interactive Weather Map
Tropical Storm Tracking
New forecast layout! Learn more

10-Day Weather Forecast

Advertisements
Track Severe Weather on mobile